createdAt,value
2019-05-17T00:01:46.868Z,6.31
2019-05-17T00:06:52.663Z,6.36
2019-05-17T00:11:57.919Z,6.37
2019-05-17T00:17:03.114Z,6.40
2019-05-17T00:22:08.625Z,6.34
2019-05-17T00:27:17.089Z,6.31
2019-05-17T00:32:22.607Z,6.33
2019-05-17T00:37:27.779Z,6.38
2019-05-17T00:42:33.062Z,6.37
2019-05-17T00:47:38.330Z,6.38
2019-05-17T00:52:47.242Z,6.36
2019-05-17T00:57:51.949Z,6.29
2019-05-17T01:02:57.414Z,6.20
2019-05-17T01:08:02.854Z,6.23
2019-05-17T01:13:08.390Z,6.24
2019-05-17T01:18:16.288Z,6.27
2019-05-17T01:23:22.618Z,6.30
2019-05-17T01:28:28.149Z,6.31
2019-05-17T01:33:33.314Z,6.34
2019-05-17T01:38:38.417Z,6.35
2019-05-17T01:43:44.054Z,6.33
2019-05-17T01:48:49.221Z,6.32
2019-05-17T01:53:57.350Z,6.29
2019-05-17T01:59:02.352Z,6.28
2019-05-17T02:04:07.533Z,6.29
2019-05-17T02:09:12.721Z,6.27
2019-05-17T02:14:18.272Z,6.27
2019-05-17T02:19:23.444Z,6.27
2019-05-17T02:24:28.637Z,6.28
2019-05-17T02:29:33.904Z,6.29
2019-05-17T02:34:39.069Z,6.29
2019-05-17T02:40:01.049Z,6.25
2019-05-17T02:44:53.191Z,6.17
2019-05-17T02:49:59.542Z,6.17
2019-05-17T02:55:05.519Z,6.19
2019-05-17T03:00:13.344Z,6.23
2019-05-17T03:05:18.618Z,6.25
2019-05-17T03:10:28.855Z,6.25
2019-05-17T03:15:32.475Z,6.26
2019-05-17T03:20:38.311Z,6.25
2019-05-17T03:25:44.089Z,6.24
2019-05-17T03:30:55.654Z,6.25
2019-05-17T03:35:57.775Z,6.25
2019-05-17T03:41:17.683Z,6.29
2019-05-17T03:46:13.636Z,6.30
2019-05-17T03:51:17.043Z,6.32
2019-05-17T03:56:22.652Z,6.38
2019-05-17T04:01:28.894Z,6.43
2019-05-17T04:06:34.618Z,6.47
2019-05-17T04:11:42.699Z,6.53
2019-05-17T04:16:46.772Z,6.59
2019-05-17T04:21:53.694Z,6.62
2019-05-17T04:26:59.211Z,6.66
2019-05-17T04:32:04.492Z,6.71
2019-05-17T04:37:12.915Z,6.76
2019-05-17T04:42:16.897Z,6.81
2019-05-17T04:47:23.236Z,6.85
2019-05-17T04:52:28.400Z,6.91
2019-05-17T04:57:33.911Z,6.96
2019-05-17T05:02:39.075Z,6.97
2019-05-17T05:07:44.542Z,7.01
2019-05-17T05:12:52.350Z,7.05
2019-05-17T05:17:56.674Z,7.07
2019-05-17T05:23:02.906Z,7.12
2019-05-17T05:28:08.089Z,7.15
2019-05-17T05:33:13.690Z,7.19
2019-05-17T05:38:18.856Z,7.24
2019-05-17T05:43:23.974Z,7.29
2019-05-17T05:48:32.368Z,7.36
2019-05-17T05:53:36.863Z,7.45
2019-05-17T05:58:42.798Z,7.52
2019-05-17T06:03:48.189Z,7.62
2019-05-17T06:08:54.575Z,7.69
2019-05-17T06:14:01.597Z,7.78
2019-05-17T06:19:06.717Z,7.88
2019-05-17T06:24:12.371Z,8.00
2019-05-17T06:29:18.901Z,8.12
2019-05-17T06:34:24.204Z,8.26
2019-05-17T06:39:29.598Z,8.42
2019-05-17T06:44:35.589Z,8.59
2019-05-17T06:49:42.358Z,8.74
2019-05-17T06:54:47.900Z,8.85
2019-05-17T06:59:53.303Z,9.01
2019-05-17T07:05:05.067Z,9.14
2019-05-17T07:10:11.186Z,9.25
2019-05-17T07:15:17.002Z,9.44
2019-05-17T07:20:23.370Z,9.56
2019-05-17T07:25:30.347Z,9.73
2019-05-17T07:30:35.738Z,9.86
2019-05-17T07:35:41.360Z,10.06
2019-05-17T07:40:46.907Z,10.15
2019-05-17T07:45:52.194Z,10.35
2019-05-17T07:50:59.346Z,10.50
2019-05-17T07:56:05.930Z,10.60
2019-05-17T08:01:11.017Z,10.78
2019-05-17T08:06:16.242Z,10.73
2019-05-17T08:11:21.527Z,10.79
2019-05-17T08:16:26.783Z,10.82
2019-05-17T08:21:32.083Z,11.01
2019-05-17T08:26:37.353Z,11.15
2019-05-17T08:31:42.615Z,11.38
2019-05-17T08:36:49.860Z,11.52
2019-05-17T08:41:54.896Z,11.87
2019-05-17T08:47:00.399Z,12.11
2019-05-17T08:52:05.654Z,12.30
2019-05-17T08:57:10.915Z,12.46
2019-05-17T09:02:19.732Z,12.72
2019-05-17T09:07:24.167Z,12.97
2019-05-17T09:12:30.018Z,13.03
2019-05-17T09:17:35.434Z,13.10
2019-05-17T09:22:40.704Z,13.32
2019-05-17T09:27:45.952Z,13.32
2019-05-17T09:32:53.884Z,13.58
2019-05-17T09:38:00.536Z,13.76
2019-05-17T09:43:09.854Z,13.82
2019-05-17T09:48:14.684Z,13.96
2019-05-17T09:53:20.283Z,14.07
2019-05-17T09:58:25.924Z,14.23
2019-05-17T10:03:31.194Z,14.34
2019-05-17T10:08:36.441Z,14.36
2019-05-17T10:13:41.700Z,14.02
2019-05-17T10:18:47.348Z,13.83
2019-05-17T10:23:52.988Z,14.00
2019-05-17T10:28:59.393Z,13.97
2019-05-17T10:34:04.717Z,13.83
2019-05-17T10:39:10.109Z,13.76
2019-05-17T10:44:15.349Z,13.65
2019-05-17T10:49:20.968Z,13.55
2019-05-17T10:54:26.221Z,13.64
2019-05-17T10:59:31.616Z,13.57
2019-05-17T11:04:36.881Z,13.66
2019-05-17T11:09:42.471Z,13.75
2019-05-17T11:14:55.845Z,13.93
2019-05-17T11:19:54.725Z,14.06
2019-05-17T11:24:59.966Z,14.31
2019-05-17T11:30:07.532Z,14.46
2019-05-17T11:35:12.895Z,14.76
2019-05-17T11:40:19.490Z,14.78
2019-05-17T11:45:29.074Z,14.99
2019-05-17T11:50:32.819Z,15.07
2019-05-17T11:55:38.230Z,15.02
2019-05-17T12:00:43.755Z,14.90
2019-05-17T12:05:49.365Z,14.85
2019-05-17T12:10:54.828Z,15.05
2019-05-17T12:16:00.555Z,15.19
2019-05-17T12:21:06.842Z,15.12
2019-05-17T12:26:12.081Z,15.23
2019-05-17T12:31:17.665Z,15.25
2019-05-17T12:36:23.270Z,15.15
2019-05-17T12:41:28.907Z,15.25
2019-05-17T12:46:34.144Z,15.61
2019-05-17T12:51:40.281Z,15.81
2019-05-17T12:56:45.532Z,16.15
2019-05-17T13:01:51.100Z,16.07
2019-05-17T13:06:56.702Z,16.37
2019-05-17T13:12:01.951Z,16.42
2019-05-17T13:17:07.215Z,16.43
2019-05-17T13:22:12.811Z,16.61
2019-05-17T13:27:18.104Z,16.67
2019-05-17T13:32:23.331Z,16.73
2019-05-17T13:37:28.562Z,16.57
2019-05-17T13:42:34.676Z,16.59
2019-05-17T13:47:39.945Z,17.38
2019-05-17T13:52:45.181Z,18.51
2019-05-17T13:57:51.230Z,18.73
2019-05-17T14:02:56.492Z,18.51
2019-05-17T14:08:01.737Z,18.18
2019-05-17T14:13:06.970Z,17.36
2019-05-17T14:18:12.244Z,17.38
2019-05-17T14:23:17.724Z,17.10
2019-05-17T14:28:22.974Z,17.19
2019-05-17T14:33:28.599Z,17.53
2019-05-17T14:38:33.865Z,18.04
2019-05-17T14:43:39.979Z,18.47
2019-05-17T14:48:46.053Z,18.15
2019-05-17T14:53:52.991Z,18.52
2019-05-17T14:58:58.134Z,18.84
2019-05-17T15:04:03.402Z,18.61
2019-05-17T15:09:11.540Z,18.70
2019-05-17T15:14:15.802Z,19.28
2019-05-17T15:19:21.170Z,19.43
2019-05-17T15:24:27.403Z,19.15
2019-05-17T15:29:33.090Z,18.87
2019-05-17T15:34:38.370Z,18.37
2019-05-17T15:39:43.918Z,18.74
2019-05-17T15:44:49.163Z,18.93
2019-05-17T15:49:54.561Z,19.45
2019-05-17T15:54:59.735Z,18.98
2019-05-17T16:00:05.732Z,19.43
2019-05-17T16:05:11.364Z,19.39
2019-05-17T16:10:17.228Z,19.84
2019-05-17T16:15:22.913Z,20.24
2019-05-17T16:20:28.175Z,20.44
2019-05-17T16:25:34.094Z,20.54
2019-05-17T16:30:39.422Z,20.50
2019-05-17T16:35:44.645Z,19.76
2019-05-17T16:40:50.251Z,20.21
2019-05-17T16:45:55.493Z,20.48
2019-05-17T16:51:01.096Z,20.49
2019-05-17T16:56:07.185Z,20.68
2019-05-17T17:01:12.434Z,20.91
2019-05-17T17:06:17.675Z,20.88
2019-05-17T17:11:22.913Z,20.82
2019-05-17T17:16:28.187Z,20.57
2019-05-17T17:21:34.241Z,20.58
2019-05-17T17:26:39.523Z,20.67
2019-05-17T17:31:45.283Z,20.94
2019-05-17T17:36:52.044Z,20.69
2019-05-17T17:41:57.291Z,20.17
2019-05-17T17:47:02.563Z,19.86
2019-05-17T17:52:07.813Z,19.53
2019-05-17T17:57:13.082Z,18.92
2019-05-17T18:02:18.326Z,18.51
2019-05-17T18:07:24.653Z,18.43
2019-05-17T18:12:30.326Z,18.41
2019-05-17T18:17:39.264Z,18.44
2019-05-17T18:22:42.973Z,18.08
2019-05-17T18:27:48.550Z,17.54
2019-05-17T18:32:53.798Z,17.10
2019-05-17T18:38:00.192Z,16.52
2019-05-17T18:43:05.627Z,16.16
2019-05-17T18:48:11.655Z,15.60
2019-05-17T18:53:17.435Z,15.19
2019-05-17T18:58:22.742Z,14.85
2019-05-17T19:03:27.984Z,14.51
2019-05-17T19:08:33.247Z,14.35
2019-05-17T19:13:38.900Z,14.04
2019-05-17T19:18:44.169Z,13.75
2019-05-17T19:23:49.721Z,13.56
2019-05-17T19:28:54.958Z,13.39
2019-05-17T19:34:00.343Z,13.31
2019-05-17T19:39:07.427Z,13.11
2019-05-17T19:44:12.839Z,12.94
2019-05-17T19:49:18.088Z,12.85
2019-05-17T19:54:23.645Z,12.75
2019-05-17T19:59:28.877Z,12.66
2019-05-17T20:04:34.117Z,12.48
2019-05-17T20:09:39.744Z,12.40
2019-05-17T20:14:45.006Z,12.37
2019-05-17T20:19:50.289Z,12.28
2019-05-17T20:24:55.632Z,12.11
2019-05-17T20:30:00.872Z,12.00
2019-05-17T20:35:08.407Z,11.89
2019-05-17T20:40:14.541Z,11.72
2019-05-17T20:45:32.085Z,11.61
2019-05-17T20:50:26.967Z,11.54
2019-05-17T20:55:32.543Z,11.45
2019-05-17T21:00:38.090Z,11.41
2019-05-17T21:05:44.306Z,11.36
2019-05-17T21:10:49.543Z,11.29
2019-05-17T21:15:54.779Z,11.26
2019-05-17T21:21:00.039Z,11.24
2019-05-17T21:26:05.555Z,11.19
2019-05-17T21:31:11.123Z,11.13
2019-05-17T21:36:16.354Z,11.03
2019-05-17T21:41:21.747Z,10.96
2019-05-17T21:46:28.154Z,10.93
2019-05-17T21:51:33.744Z,10.90
2019-05-17T21:56:40.624Z,10.83
2019-05-17T22:01:46.558Z,10.72
2019-05-17T22:06:52.094Z,10.62
2019-05-17T22:12:00.318Z,10.56
2019-05-17T22:17:05.724Z,10.48
2019-05-17T22:22:10.972Z,10.44
2019-05-17T22:27:16.208Z,10.44
2019-05-17T22:32:21.453Z,10.44
2019-05-17T22:37:27.040Z,10.31
2019-05-17T22:42:32.290Z,10.09
2019-05-17T22:47:37.816Z,9.98
2019-05-17T22:52:43.198Z,9.91
2019-05-17T22:57:48.429Z,9.95
2019-05-17T23:02:53.663Z,9.84
2019-05-17T23:07:59.080Z,9.74
2019-05-17T23:13:05.137Z,9.74
2019-05-17T23:18:10.661Z,9.67
2019-05-17T23:23:16.767Z,9.64
2019-05-17T23:28:21.993Z,9.63
2019-05-17T23:33:27.984Z,9.59
2019-05-17T23:38:34.310Z,9.52
2019-05-17T23:43:39.561Z,9.52
2019-05-17T23:48:45.264Z,9.49
2019-05-17T23:53:50.833Z,9.48
2019-05-17T23:58:56.092Z,9.48
